createdAt,value
2018-09-19T00:01:54.816Z,7.23
2018-09-19T00:04:22.865Z,6.20
2018-09-19T00:06:50.869Z,6.87
2018-09-19T00:09:18.918Z,7.30
2018-09-19T00:11:47.024Z,7.53
2018-09-19T00:14:15.112Z,7.57
2018-09-19T00:16:43.176Z,7.10
2018-09-19T00:19:11.160Z,7.17
2018-09-19T00:21:39.317Z,7.10
2018-09-19T00:24:07.390Z,7.30
2018-09-19T00:26:35.440Z,7.33
2018-09-19T00:29:03.432Z,7.53
2018-09-19T00:31:31.572Z,8.07
2018-09-19T00:33:59.560Z,7.60
2018-09-19T00:36:27.565Z,6.43
2018-09-19T00:38:55.633Z,6.57
2018-09-19T00:41:23.644Z,6.73
2018-09-19T00:43:51.874Z,7.30
2018-09-19T00:46:20.405Z,6.50
2018-09-19T00:48:48.524Z,7.27
2018-09-19T00:51:16.582Z,6.47
2018-09-19T00:53:44.835Z,6.90
2018-09-19T00:56:12.880Z,6.60
2018-09-19T00:58:40.881Z,6.77
2018-09-19T01:01:09.085Z,6.77
2018-09-19T01:03:37.186Z,6.77
2018-09-19T01:06:05.249Z,6.93
2018-09-19T01:08:33.268Z,7.13
2018-09-19T01:11:01.358Z,7.03
2018-09-19T01:13:29.388Z,6.83
2018-09-19T01:15:57.514Z,7.27
2018-09-19T01:18:25.793Z,6.50
2018-09-19T01:20:53.832Z,6.63
2018-09-19T01:23:21.905Z,6.90
2018-09-19T01:25:50.068Z,7.40
2018-09-19T01:28:18.154Z,6.57
2018-09-19T01:30:46.272Z,6.10
2018-09-19T01:33:14.739Z,5.90
2018-09-19T01:35:42.793Z,6.40
2018-09-19T01:38:10.832Z,6.70
2018-09-19T01:40:38.999Z,6.63
2018-09-19T01:43:07.163Z,7.20
2018-09-19T01:45:35.197Z,6.43
2018-09-19T01:48:03.276Z,7.10
2018-09-19T01:50:31.303Z,7.27
2018-09-19T01:52:59.418Z,7.53
2018-09-19T01:55:27.599Z,7.97
2018-09-19T01:57:55.631Z,7.83
2018-09-19T02:00:23.754Z,8.00
2018-09-19T02:02:51.860Z,7.43
2018-09-19T02:05:19.934Z,9.27
2018-09-19T02:07:47.935Z,8.23
2018-09-19T02:10:16.121Z,7.67
2018-09-19T02:12:44.288Z,8.70
2018-09-19T02:15:12.293Z,8.97
2018-09-19T02:17:40.341Z,8.63
2018-09-19T02:20:08.481Z,8.40
2018-09-19T02:22:36.572Z,7.70
2018-09-19T02:25:04.640Z,8.50
2018-09-19T02:27:32.661Z,8.77
2018-09-19T02:30:00.757Z,9.10
2018-09-19T02:32:28.901Z,8.37
2018-09-19T02:34:56.933Z,9.13
2018-09-19T02:37:25.012Z,9.33
2018-09-19T02:39:53.099Z,8.60
2018-09-19T02:42:21.264Z,9.27
2018-09-19T02:44:49.310Z,9.27
2018-09-19T02:47:17.354Z,7.73
2018-09-19T02:49:45.509Z,9.47
2018-09-19T02:52:13.684Z,9.50
2018-09-19T02:54:41.738Z,9.03
2018-09-19T02:57:09.780Z,8.57
2018-09-19T02:59:37.759Z,8.60
2018-09-19T03:02:06.021Z,8.27
2018-09-19T03:04:34.071Z,8.33
2018-09-19T03:07:02.032Z,7.90
2018-09-19T03:09:30.081Z,9.10
2018-09-19T03:11:58.247Z,8.53
2018-09-19T03:14:26.376Z,8.93
2018-09-19T03:16:54.465Z,7.77
2018-09-19T03:19:22.511Z,7.90
2018-09-19T03:21:50.573Z,8.20
2018-09-19T03:24:18.765Z,7.90
2018-09-19T03:26:46.784Z,8.50
2018-09-19T03:29:14.838Z,8.10
2018-09-19T03:31:43.074Z,7.80
2018-09-19T03:34:11.133Z,7.20
2018-09-19T03:36:39.404Z,8.00
2018-09-19T03:39:09.768Z,8.80
2018-09-19T03:41:38.795Z,8.20
2018-09-19T03:44:08.181Z,8.27
2018-09-19T03:46:37.538Z,8.37
2018-09-19T03:49:06.378Z,7.67
2018-09-19T03:51:34.881Z,8.63
2018-09-19T03:54:03.394Z,7.77
2018-09-19T03:56:31.873Z,7.63
2018-09-19T03:59:00.278Z,8.43
2018-09-19T04:01:28.878Z,7.23
2018-09-19T04:03:57.332Z,7.10
2018-09-19T04:06:25.795Z,6.80
2018-09-19T04:08:54.162Z,7.50
2018-09-19T04:11:22.708Z,7.10
2018-09-19T04:13:51.171Z,7.50
2018-09-19T04:16:19.526Z,7.10
2018-09-19T04:18:48.072Z,6.90
2018-09-19T04:21:16.417Z,6.70
2018-09-19T04:23:44.726Z,7.37
2018-09-19T04:26:13.015Z,7.33
2018-09-19T04:28:41.991Z,7.77
2018-09-19T04:31:10.369Z,6.27
2018-09-19T04:33:38.767Z,6.63
2018-09-19T04:36:07.023Z,7.20
2018-09-19T04:38:35.377Z,7.07
2018-09-19T04:41:03.670Z,6.63
2018-09-19T04:43:32.133Z,7.17
2018-09-19T04:46:00.411Z,5.60
2018-09-19T04:48:28.816Z,6.77
2018-09-19T04:50:57.267Z,7.27
2018-09-19T04:53:25.666Z,6.90
2018-09-19T04:55:53.977Z,7.67
2018-09-19T04:58:22.369Z,7.37
2018-09-19T05:00:53.016Z,7.40
2018-09-19T05:03:22.696Z,6.27
2018-09-19T05:05:52.492Z,7.17
2018-09-19T05:08:21.478Z,7.67
2018-09-19T05:10:51.957Z,8.83
2018-09-19T05:13:22.191Z,7.73
2018-09-19T05:15:52.120Z,7.63
2018-09-19T05:18:20.470Z,8.53
2018-09-19T05:20:48.777Z,8.63
2018-09-19T05:23:17.122Z,8.73
2018-09-19T05:25:45.412Z,8.53
2018-09-19T05:28:13.764Z,8.87
2018-09-19T05:30:42.187Z,8.70
2018-09-19T05:33:10.644Z,8.97
2018-09-19T05:35:39.066Z,8.03
2018-09-19T05:38:07.852Z,8.80
2018-09-19T05:40:36.140Z,8.73
2018-09-19T05:43:04.597Z,8.27
2018-09-19T05:45:32.990Z,9.20
2018-09-19T05:48:01.496Z,9.30
2018-09-19T05:50:29.871Z,8.43
2018-09-19T05:52:58.297Z,9.17
2018-09-19T05:55:26.641Z,9.03
2018-09-19T05:57:55.171Z,8.60
2018-09-19T06:00:23.606Z,8.67
2018-09-19T06:02:52.005Z,9.30
2018-09-19T06:05:20.170Z,9.00
2018-09-19T06:07:48.869Z,9.47
2018-09-19T06:10:17.692Z,10.27
2018-09-19T06:12:47.467Z,9.37
2018-09-19T06:15:16.055Z,8.07
2018-09-19T06:17:44.643Z,8.00
2018-09-19T06:20:13.335Z,7.50
2018-09-19T06:22:42.759Z,7.50
2018-09-19T06:25:12.176Z,6.57
2018-09-19T06:27:40.970Z,5.97
2018-09-19T06:30:09.797Z,6.90
2018-09-19T06:32:38.540Z,6.83
2018-09-19T06:35:07.461Z,7.53
2018-09-19T06:37:35.988Z,6.87
2018-09-19T06:40:04.491Z,8.60
2018-09-19T06:42:33.154Z,6.73
2018-09-19T06:45:01.633Z,6.87
2018-09-19T06:47:30.102Z,7.57
2018-09-19T06:49:58.562Z,6.90
2018-09-19T06:52:27.132Z,6.13
2018-09-19T06:54:55.521Z,6.57
2018-09-19T06:57:23.860Z,6.67
2018-09-19T06:59:52.452Z,6.03
2018-09-19T07:02:21.067Z,6.37
2018-09-19T07:04:49.682Z,5.80
2018-09-19T07:07:18.195Z,6.03
2018-09-19T07:09:47.417Z,6.40
2018-09-19T07:12:16.004Z,6.13
2018-09-19T07:14:44.417Z,5.97
2018-09-19T07:17:12.828Z,6.23
2018-09-19T07:19:41.479Z,7.10
2018-09-19T07:22:10.232Z,5.77
2018-09-19T07:24:38.720Z,5.73
2018-09-19T07:27:07.770Z,6.17
2018-09-19T07:29:36.216Z,5.63
2018-09-19T07:32:04.805Z,5.90
2018-09-19T07:34:33.830Z,5.30
2018-09-19T07:37:02.217Z,5.63
2018-09-19T07:39:30.722Z,6.23
2018-09-19T07:41:59.332Z,5.43
2018-09-19T07:44:27.936Z,5.83
2018-09-19T07:46:56.409Z,6.27
2018-09-19T07:49:24.961Z,6.00
2018-09-19T07:51:53.936Z,6.93
2018-09-19T07:54:22.621Z,6.40
2018-09-19T07:56:51.179Z,5.83
2018-09-19T07:59:20.003Z,6.63
2018-09-19T08:01:48.551Z,6.17
2018-09-19T08:04:16.973Z,6.23
2018-09-19T08:06:45.867Z,6.73
2018-09-19T08:09:14.813Z,5.53
2018-09-19T08:11:43.359Z,6.03
2018-09-19T08:14:11.949Z,5.53
2018-09-19T08:16:40.437Z,5.93
2018-09-19T08:19:08.978Z,6.07
2018-09-19T08:21:37.440Z,5.70
2018-09-19T08:24:06.109Z,6.03
2018-09-19T08:26:35.082Z,5.63
2018-09-19T08:29:03.729Z,5.90
2018-09-19T08:31:32.151Z,5.90
2018-09-19T08:34:00.681Z,6.67
2018-09-19T08:36:29.455Z,6.13
2018-09-19T08:38:58.069Z,6.07
2018-09-19T08:41:26.549Z,6.03
2018-09-19T08:43:55.502Z,6.37
2018-09-19T08:46:23.967Z,6.47
2018-09-19T08:48:52.872Z,6.27
2018-09-19T08:51:21.699Z,6.10
2018-09-19T08:53:50.165Z,7.10
2018-09-19T08:56:19.092Z,6.27
2018-09-19T08:58:48.304Z,6.00
2018-09-19T09:01:16.818Z,5.87
2018-09-19T09:03:45.655Z,6.37
2018-09-19T09:06:14.097Z,6.43
2018-09-19T09:08:42.225Z,5.83
2018-09-19T09:11:10.470Z,5.80
2018-09-19T09:13:38.622Z,6.27
2018-09-19T09:16:07.072Z,5.83
2018-09-19T09:18:35.294Z,6.50
2018-09-19T09:21:03.499Z,5.80
2018-09-19T09:23:31.769Z,5.70
2018-09-19T09:26:00.298Z,6.27
2018-09-19T09:28:28.567Z,4.97
2018-09-19T09:30:56.902Z,5.60
2018-09-19T09:33:25.274Z,5.60
2018-09-19T09:35:53.487Z,5.40
2018-09-19T09:38:21.731Z,5.73
2018-09-19T09:40:49.819Z,5.60
2018-09-19T09:43:18.016Z,5.43
2018-09-19T09:45:46.136Z,5.40
2018-09-19T09:48:14.248Z,5.47
2018-09-19T09:50:42.550Z,5.70
2018-09-19T09:53:10.772Z,4.93
2018-09-19T09:55:38.930Z,5.63
2018-09-19T09:58:07.305Z,4.90
2018-09-19T10:00:41.666Z,6.07
2018-09-19T10:03:10.867Z,5.50
2018-09-19T10:05:39.149Z,4.40
2018-09-19T10:08:07.678Z,5.42
2018-09-19T10:10:36.263Z,5.50
2018-09-19T10:13:04.910Z,5.40
2018-09-19T10:15:33.460Z,4.60
2018-09-19T10:18:01.940Z,4.80
2018-09-19T10:20:30.544Z,4.40
2018-09-19T10:22:59.376Z,4.87
2018-09-19T10:25:28.034Z,5.17
2018-09-19T10:27:56.709Z,4.95
2018-09-19T10:30:25.413Z,4.47
2018-09-19T10:32:54.506Z,4.92
2018-09-19T10:35:23.059Z,4.05
2018-09-19T10:37:51.761Z,5.15
2018-09-19T10:40:20.520Z,4.83
2018-09-19T10:42:48.992Z,4.80
2018-09-19T10:45:17.512Z,5.00
2018-09-19T10:47:46.227Z,5.53
2018-09-19T10:50:14.751Z,4.90
2018-09-19T10:52:43.572Z,5.33
2018-09-19T10:55:12.099Z,4.87
2018-09-19T10:57:40.551Z,4.97
2018-09-19T11:00:08.977Z,5.47
2018-09-19T11:02:37.653Z,4.97
2018-09-19T11:05:06.030Z,4.60
2018-09-19T11:07:34.472Z,4.90
2018-09-19T11:10:02.926Z,4.65
2018-09-19T11:12:31.514Z,4.62
2018-09-19T11:15:00.045Z,4.50
2018-09-19T11:17:28.362Z,4.37
2018-09-19T11:19:56.906Z,4.50
2018-09-19T11:22:25.410Z,4.28
2018-09-19T11:24:53.849Z,4.70
2018-09-19T11:27:22.846Z,4.30
2018-09-19T11:29:51.827Z,4.65
2018-09-19T11:32:19.925Z,4.25
2018-09-19T11:34:48.118Z,4.47
2018-09-19T11:37:16.223Z,3.90
2018-09-19T11:39:44.308Z,4.50
2018-09-19T11:42:12.415Z,4.65
2018-09-19T11:44:41.645Z,4.45
2018-09-19T11:47:09.912Z,4.47
2018-09-19T11:49:37.987Z,4.90
2018-09-19T11:52:06.145Z,5.40
2018-09-19T11:54:34.465Z,4.87
2018-09-19T11:57:02.868Z,5.12
2018-09-19T11:59:30.991Z,4.58
2018-09-19T12:01:59.147Z,4.65
2018-09-19T12:04:27.385Z,4.10
2018-09-19T12:06:55.703Z,5.00
2018-09-19T12:09:23.976Z,4.17
2018-09-19T12:11:52.064Z,4.83
2018-09-19T12:14:20.201Z,5.10
2018-09-19T12:16:48.760Z,4.50
2018-09-19T12:19:17.535Z,4.42
2018-09-19T12:21:46.068Z,4.28
2018-09-19T12:24:14.681Z,4.22
2018-09-19T12:26:43.299Z,3.98
2018-09-19T12:29:11.879Z,4.03
2018-09-19T12:31:40.835Z,3.83
2018-09-19T12:34:09.523Z,4.47
2018-09-19T12:36:37.996Z,3.65
2018-09-19T12:39:08.766Z,3.45
2018-09-19T12:41:37.651Z,4.03
2018-09-19T12:44:06.583Z,3.98
2018-09-19T12:46:35.414Z,3.72
2018-09-19T12:49:04.144Z,3.50
2018-09-19T12:51:32.602Z,3.60
2018-09-19T12:54:01.343Z,3.55
2018-09-19T12:56:29.944Z,3.65
2018-09-19T12:58:58.932Z,3.60
2018-09-19T13:01:27.672Z,4.08
2018-09-19T13:03:57.244Z,3.52
2018-09-19T13:06:26.061Z,3.65
2018-09-19T13:08:54.807Z,4.05
2018-09-19T13:11:24.116Z,4.10
2018-09-19T13:13:53.650Z,3.27
2018-09-19T13:16:22.856Z,4.05
2018-09-19T13:18:51.610Z,3.95
2018-09-19T13:21:21.597Z,2.90
2018-09-19T13:23:50.455Z,2.67
2018-09-19T13:26:18.986Z,2.35
2018-09-19T13:28:48.026Z,2.30
2018-09-19T13:31:16.442Z,2.30
2018-09-19T13:33:45.280Z,2.20
2018-09-19T13:36:13.766Z,2.37
2018-09-19T13:38:42.560Z,2.20
2018-09-19T13:41:11.448Z,2.70
2018-09-19T13:43:40.461Z,2.27
2018-09-19T13:46:09.965Z,2.42
2018-09-19T13:48:39.712Z,2.10
2018-09-19T13:51:15.520Z,2.27
2018-09-19T13:53:44.765Z,2.52
2018-09-19T13:56:13.418Z,2.25
2018-09-19T13:58:42.015Z,2.27
2018-09-19T14:01:10.928Z,2.15
2018-09-19T14:03:40.558Z,2.55
2018-09-19T14:06:09.500Z,2.00
2018-09-19T14:08:38.517Z,2.05
2018-09-19T14:11:07.184Z,2.67
2018-09-19T14:13:36.658Z,1.82
2018-09-19T14:16:05.752Z,2.10
2018-09-19T14:18:34.635Z,2.33
2018-09-19T14:21:03.280Z,2.50
2018-09-19T14:23:31.869Z,2.47
2018-09-19T14:26:00.302Z,2.17
2018-09-19T14:28:28.930Z,1.90
2018-09-19T14:30:57.739Z,2.40
2018-09-19T14:33:26.414Z,2.30
2018-09-19T14:35:54.986Z,2.53
2018-09-19T14:38:23.839Z,1.93
2018-09-19T14:40:52.277Z,2.50
2018-09-19T14:43:20.952Z,2.20
2018-09-19T14:45:49.449Z,2.33
2018-09-19T14:48:17.962Z,2.20
2018-09-19T14:50:46.695Z,2.27
2018-09-19T14:53:15.347Z,1.93
2018-09-19T14:55:43.938Z,1.83
2018-09-19T14:58:12.679Z,2.07
2018-09-19T15:00:41.508Z,2.27
2018-09-19T15:03:10.059Z,2.10
2018-09-19T15:05:38.652Z,2.03
2018-09-19T15:08:07.196Z,2.27
2018-09-19T15:10:35.621Z,2.43
2018-09-19T15:13:04.216Z,1.93
2018-09-19T15:15:32.795Z,2.20
2018-09-19T15:18:01.395Z,2.70
2018-09-19T15:20:29.594Z,2.23
2018-09-19T15:22:57.686Z,2.13
2018-09-19T15:25:25.892Z,1.97
2018-09-19T15:27:54.104Z,1.97
2018-09-19T15:30:22.293Z,2.33
2018-09-19T15:32:50.528Z,2.40
2018-09-19T15:35:18.673Z,2.43
2018-09-19T15:37:46.929Z,2.10
2018-09-19T15:40:15.113Z,2.37
2018-09-19T15:42:43.301Z,2.43
2018-09-19T15:45:11.756Z,2.07
2018-09-19T15:47:39.789Z,2.23
2018-09-19T15:50:08.053Z,2.70
2018-09-19T15:52:36.307Z,2.50
2018-09-19T15:55:05.047Z,1.80
2018-09-19T15:57:33.608Z,2.10
2018-09-19T16:00:02.561Z,2.23
2018-09-19T16:02:30.972Z,2.20
2018-09-19T16:04:59.162Z,2.27
2018-09-19T16:07:27.551Z,2.47
2018-09-19T16:09:55.765Z,2.80
2018-09-19T16:12:25.567Z,2.50
2018-09-19T16:14:55.334Z,2.47
2018-09-19T16:17:25.577Z,2.60
2018-09-19T16:19:54.627Z,2.20
2018-09-19T16:22:23.047Z,2.73
2018-09-19T16:24:52.509Z,2.40
2018-09-19T16:27:21.605Z,2.60
2018-09-19T16:29:49.915Z,2.57
2018-09-19T16:32:18.090Z,2.83
2018-09-19T16:34:47.754Z,2.33
2018-09-19T16:37:18.074Z,2.47
2018-09-19T16:39:46.651Z,2.50
2018-09-19T16:42:16.642Z,2.50
2018-09-19T16:44:45.787Z,2.57
2018-09-19T16:47:14.978Z,2.90
2018-09-19T16:49:43.531Z,2.87
2018-09-19T16:52:13.543Z,2.60
2018-09-19T16:54:41.728Z,2.70
2018-09-19T16:57:10.111Z,2.70
2018-09-19T16:59:38.331Z,2.47
2018-09-19T17:02:06.734Z,3.00
2018-09-19T17:04:34.965Z,2.77
2018-09-19T17:07:03.416Z,2.43
2018-09-19T17:09:31.886Z,2.40
2018-09-19T17:12:00.141Z,2.73
2018-09-19T17:14:29.721Z,2.73
2018-09-19T17:16:57.948Z,3.10
2018-09-19T17:19:26.406Z,3.10
2018-09-19T17:21:54.562Z,3.10
2018-09-19T17:24:23.146Z,2.90
2018-09-19T17:26:51.364Z,2.70
2018-09-19T17:29:20.138Z,2.77
2018-09-19T17:31:49.549Z,2.83
2018-09-19T17:34:18.113Z,2.73
2018-09-19T17:36:46.862Z,3.07
2018-09-19T17:39:15.143Z,2.80
2018-09-19T17:41:43.497Z,2.70
2018-09-19T17:44:12.092Z,3.20
2018-09-19T17:46:40.689Z,3.27
2018-09-19T17:49:09.502Z,2.90
2018-09-19T17:51:37.868Z,3.33
2018-09-19T17:54:07.197Z,3.20
2018-09-19T17:56:35.782Z,3.23
2018-09-19T17:59:04.393Z,3.10
2018-09-19T18:01:32.624Z,3.47
2018-09-19T18:04:01.294Z,3.27
2018-09-19T18:06:29.561Z,4.13
2018-09-19T18:08:57.787Z,3.13
2018-09-19T18:11:26.323Z,3.27
2018-09-19T18:13:54.511Z,3.50
2018-09-19T18:16:22.962Z,3.40
2018-09-19T18:18:51.177Z,2.97
2018-09-19T18:21:19.331Z,3.03
2018-09-19T18:23:47.574Z,3.47
2018-09-19T18:26:15.795Z,3.30
2018-09-19T18:28:44.097Z,3.60
2018-09-19T18:31:12.291Z,3.40
2018-09-19T18:33:40.763Z,3.63
2018-09-19T18:36:09.164Z,3.13
2018-09-19T18:38:37.434Z,3.20
2018-09-19T18:41:05.721Z,3.47
2018-09-19T18:43:34.037Z,3.50
2018-09-19T18:46:02.229Z,3.40
2018-09-19T18:48:30.398Z,3.00
2018-09-19T18:50:58.572Z,4.07
2018-09-19T18:53:26.715Z,3.13
2018-09-19T18:55:54.831Z,3.10
2018-09-19T18:58:23.371Z,3.00
2018-09-19T19:00:51.470Z,3.07
2018-09-19T19:03:19.722Z,3.33
2018-09-19T19:05:47.825Z,3.30
2018-09-19T19:08:16.018Z,3.30
2018-09-19T19:10:44.176Z,3.27
2018-09-19T19:13:12.419Z,3.23
2018-09-19T19:15:40.672Z,3.47
2018-09-19T19:18:09.002Z,3.13
2018-09-19T19:20:37.399Z,3.20
2018-09-19T19:23:05.649Z,3.47
2018-09-19T19:25:33.900Z,3.30
2018-09-19T19:28:02.302Z,3.53
2018-09-19T19:30:30.585Z,3.20
2018-09-19T19:32:58.884Z,2.67
2018-09-19T19:35:27.319Z,2.90
2018-09-19T19:37:55.563Z,2.80
2018-09-19T19:40:23.831Z,2.90
2018-09-19T19:42:52.081Z,2.40
2018-09-19T19:45:20.469Z,3.13
2018-09-19T19:47:49.708Z,2.93
2018-09-19T19:50:17.916Z,2.90
2018-09-19T19:52:46.127Z,3.50
2018-09-19T19:55:14.463Z,3.27
2018-09-19T19:57:42.728Z,3.13
2018-09-19T20:00:11.073Z,2.97
2018-09-19T20:02:39.345Z,3.40
2018-09-19T20:05:07.850Z,2.87
2018-09-19T20:07:36.199Z,3.20
2018-09-19T20:10:04.598Z,3.57
2018-09-19T20:12:32.993Z,3.33
2018-09-19T20:15:01.255Z,2.97
2018-09-19T20:17:29.548Z,3.10
2018-09-19T20:19:57.886Z,3.33
2018-09-19T20:22:26.216Z,3.07
2018-09-19T20:24:54.844Z,3.07
2018-09-19T20:27:25.528Z,3.00
2018-09-19T20:29:56.252Z,3.17
2018-09-19T20:32:25.375Z,3.27
2018-09-19T20:34:56.278Z,3.50
2018-09-19T20:37:27.427Z,2.90
2018-09-19T20:39:56.545Z,3.00
2018-09-19T20:42:26.378Z,3.33
2018-09-19T20:44:55.575Z,3.27
2018-09-19T20:47:24.007Z,3.23
2018-09-19T20:49:52.272Z,3.23
2018-09-19T20:52:20.608Z,3.03
2018-09-19T20:54:50.365Z,3.13
2018-09-19T20:57:21.345Z,2.90
2018-09-19T20:59:49.935Z,3.33
2018-09-19T21:02:18.213Z,3.60
2018-09-19T21:07:44.688Z,3.10
2018-09-19T21:10:12.846Z,4.03
2018-09-19T21:12:41.016Z,3.90
2018-09-19T21:15:09.315Z,3.20
2018-09-19T21:17:37.517Z,3.40
2018-09-19T21:20:05.787Z,3.50
2018-09-19T21:22:34.197Z,3.87
2018-09-19T21:25:02.392Z,3.80
2018-09-19T21:27:30.621Z,3.57
2018-09-19T21:29:58.766Z,3.47
2018-09-19T21:32:26.974Z,3.20
2018-09-19T21:34:55.237Z,3.23
2018-09-19T21:37:23.454Z,3.77
2018-09-19T21:39:51.687Z,2.93
2018-09-19T21:42:19.833Z,3.60
2018-09-19T21:44:48.089Z,3.47
2018-09-19T21:47:16.225Z,3.30
2018-09-19T21:49:44.438Z,3.50
2018-09-19T21:52:12.597Z,3.30
2018-09-19T21:54:40.780Z,3.10
2018-09-19T21:57:09.130Z,3.10
2018-09-19T21:59:37.318Z,3.50
2018-09-19T22:02:05.476Z,2.97
2018-09-19T22:04:33.649Z,3.17
2018-09-19T22:07:01.830Z,3.40
2018-09-19T22:09:30.331Z,3.20
2018-09-19T22:11:58.968Z,3.03
2018-09-19T22:14:27.732Z,3.50
2018-09-19T22:16:56.224Z,3.80
2018-09-19T22:19:24.764Z,3.20
2018-09-19T22:21:53.240Z,3.30
2018-09-19T22:24:21.664Z,3.00
2018-09-19T22:26:50.145Z,3.80
2018-09-19T22:29:18.468Z,2.80
2018-09-19T22:31:46.889Z,3.60
2018-09-19T22:34:15.747Z,3.03
2018-09-19T22:36:44.333Z,3.07
2018-09-19T22:39:12.777Z,3.50
2018-09-19T22:41:41.270Z,3.50
2018-09-19T22:44:09.724Z,3.23
2018-09-19T22:46:38.143Z,3.50
2018-09-19T22:49:06.614Z,3.50
2018-09-19T22:51:34.947Z,3.07
2018-09-19T22:54:03.634Z,3.00
2018-09-19T22:56:31.953Z,3.50
2018-09-19T22:59:00.272Z,3.33
2018-09-19T23:01:28.620Z,3.00
2018-09-19T23:03:57.119Z,3.53
2018-09-19T23:06:25.529Z,3.00
2018-09-19T23:08:53.942Z,2.70
2018-09-19T23:11:22.422Z,3.33
2018-09-19T23:13:50.883Z,3.40
2018-09-19T23:16:19.326Z,2.90
2018-09-19T23:18:47.780Z,3.10
2018-09-19T23:21:16.101Z,3.00
2018-09-19T23:23:44.618Z,3.20
2018-09-19T23:26:13.043Z,3.10
2018-09-19T23:28:41.665Z,4.20
2018-09-19T23:31:10.202Z,3.60
2018-09-19T23:33:38.646Z,3.10
2018-09-19T23:36:07.137Z,3.47
2018-09-19T23:38:35.645Z,3.20
2018-09-19T23:41:04.035Z,3.33
2018-09-19T23:43:32.349Z,3.23
2018-09-19T23:46:00.793Z,3.33
2018-09-19T23:48:29.185Z,3.33
2018-09-19T23:50:57.523Z,3.33
2018-09-19T23:53:25.922Z,3.80
2018-09-19T23:55:54.327Z,3.23
2018-09-19T23:58:22.657Z,3.37
